sensor_id;sensor_type;location;lat;lon;timestamp;P1;durP1;ratioP1;P2;durP2;ratioP2
76196;SDS011;64974;53.144;17.962;2023-02-11T00:02:07;34.60;;;13.40;;
76196;SDS011;64974;53.144;17.962;2023-02-11T00:04:32;29.15;;;12.88;;
76196;SDS011;64974;53.144;17.962;2023-02-11T00:06:58;32.03;;;13.33;;
76196;SDS011;64974;53.144;17.962;2023-02-11T00:09:23;29.98;;;13.65;;
76196;SDS011;64974;53.144;17.962;2023-02-11T00:11:49;28.60;;;11.80;;
76196;SDS011;64974;53.144;17.962;2023-02-11T00:14:14;30.83;;;12.37;;
76196;SDS011;64974;53.144;17.962;2023-02-11T00:16:39;31.30;;;11.63;;
76196;SDS011;64974;53.144;17.962;2023-02-11T00:19:05;32.00;;;12.60;;
76196;SDS011;64974;53.144;17.962;2023-02-11T00:21:30;35.15;;;13.93;;
76196;SDS011;64974;53.144;17.962;2023-02-11T00:23:56;36.00;;;13.02;;
76196;SDS011;64974;53.144;17.962;2023-02-11T00:26:24;30.52;;;12.13;;
76196;SDS011;64974;53.144;17.962;2023-02-11T00:28:51;35.25;;;14.02;;
76196;SDS011;64974;53.144;17.962;2023-02-11T00:31:18;32.75;;;13.40;;
76196;SDS011;64974;53.144;17.962;2023-02-11T00:33:44;34.17;;;12.88;;
76196;SDS011;64974;53.144;17.962;2023-02-11T00:36:14;29.17;;;12.43;;
76196;SDS011;64974;53.144;17.962;2023-02-11T00:38:44;32.95;;;13.85;;
76196;SDS011;64974;53.144;17.962;2023-02-11T00:41:10;33.53;;;12.07;;
76196;SDS011;64974;53.144;17.962;2023-02-11T00:43:37;24.60;;;11.77;;
76196;SDS011;64974;53.144;17.962;2023-02-11T00:46:02;37.40;;;13.25;;
76196;SDS011;64974;53.144;17.962;2023-02-11T00:48:27;43.17;;;14.90;;
76196;SDS011;64974;53.144;17.962;2023-02-11T00:50:53;44.58;;;13.85;;
76196;SDS011;64974;53.144;17.962;2023-02-11T00:53:18;25.35;;;11.05;;
76196;SDS011;64974;53.144;17.962;2023-02-11T00:55:43;35.22;;;14.55;;
76196;SDS011;64974;53.144;17.962;2023-02-11T00:58:09;41.93;;;13.77;;
76196;SDS011;64974;53.144;17.962;2023-02-11T01:00:34;35.93;;;14.17;;
76196;SDS011;64974;53.144;17.962;2023-02-11T01:02:59;25.50;;;10.17;;
76196;SDS011;64974;53.144;17.962;2023-02-11T01:05:25;31.77;;;12.00;;
76196;SDS011;64974;53.144;17.962;2023-02-11T01:07:50;37.35;;;13.10;;
76196;SDS011;64974;53.144;17.962;2023-02-11T01:10:15;30.77;;;11.57;;
76196;SDS011;64974;53.144;17.962;2023-02-11T01:12:41;22.65;;;9.88;;
76196;SDS011;64974;53.144;17.962;2023-02-11T01:15:07;36.22;;;12.88;;
76196;SDS011;64974;53.144;17.962;2023-02-11T01:20:00;29.95;;;9.77;;
76196;SDS011;64974;53.144;17.962;2023-02-11T01:22:27;27.38;;;10.23;;
76196;SDS011;64974;53.144;17.962;2023-02-11T01:24:53;35.93;;;11.97;;
76196;SDS011;64974;53.144;17.962;2023-02-11T01:27:18;34.15;;;11.32;;
76196;SDS011;64974;53.144;17.962;2023-02-11T01:29:43;30.17;;;13.03;;
76196;SDS011;64974;53.144;17.962;2023-02-11T01:32:09;21.88;;;8.73;;
76196;SDS011;64974;53.144;17.962;2023-02-11T01:34:34;17.35;;;7.38;;
76196;SDS011;64974;53.144;17.962;2023-02-11T01:36:59;37.33;;;13.60;;
76196;SDS011;64974;53.144;17.962;2023-02-11T01:39:25;35.25;;;11.90;;
76196;SDS011;64974;53.144;17.962;2023-02-11T01:41:51;36.33;;;12.80;;
76196;SDS011;64974;53.144;17.962;2023-02-11T01:44:36;22.88;;;7.80;;
76196;SDS011;64974;53.144;17.962;2023-02-11T01:47:03;31.48;;;11.07;;
76196;SDS011;64974;53.144;17.962;2023-02-11T01:49:30;24.45;;;10.57;;
76196;SDS011;64974;53.144;17.962;2023-02-11T01:54:39;25.02;;;10.32;;
76196;SDS011;64974;53.144;17.962;2023-02-11T01:57:26;26.92;;;11.70;;
76196;SDS011;64974;53.144;17.962;2023-02-11T02:03:02;32.42;;;11.10;;
76196;SDS011;64974;53.144;17.962;2023-02-11T02:08:18;27.13;;;9.40;;
76196;SDS011;64974;53.144;17.962;2023-02-11T02:10:47;30.52;;;11.27;;
76196;SDS011;64974;53.144;17.962;2023-02-11T02:13:17;27.15;;;11.88;;
76196;SDS011;64974;53.144;17.962;2023-02-11T02:16:01;21.35;;;9.38;;
76196;SDS011;64974;53.144;17.962;2023-02-11T02:18:51;24.75;;;8.77;;
76196;SDS011;64974;53.144;17.962;2023-02-11T02:34:57;31.20;;;11.98;;
76196;SDS011;64974;53.144;17.962;2023-02-11T02:37:54;30.77;;;11.80;;
76196;SDS011;64974;53.144;17.962;2023-02-11T02:40:23;22.90;;;9.90;;
76196;SDS011;64974;53.144;17.962;2023-02-11T02:42:51;30.25;;;10.50;;
76196;SDS011;64974;53.144;17.962;2023-02-11T02:45:17;24.48;;;8.82;;
76196;SDS011;64974;53.144;17.962;2023-02-11T02:47:42;25.27;;;10.27;;
76196;SDS011;64974;53.144;17.962;2023-02-11T02:50:08;22.25;;;9.63;;
76196;SDS011;64974;53.144;17.962;2023-02-11T02:52:34;25.00;;;10.27;;
76196;SDS011;64974;53.144;17.962;2023-02-11T03:06:08;28.35;;;11.13;;
76196;SDS011;64974;53.144;17.962;2023-02-11T03:08:48;40.38;;;12.52;;
76196;SDS011;64974;53.144;17.962;2023-02-11T03:11:19;29.48;;;10.52;;
76196;SDS011;64974;53.144;17.962;2023-02-11T03:13:46;28.08;;;11.93;;
76196;SDS011;64974;53.144;17.962;2023-02-11T03:16:17;29.38;;;12.85;;
76196;SDS011;64974;53.144;17.962;2023-02-11T03:18:47;24.63;;;10.27;;
76196;SDS011;64974;53.144;17.962;2023-02-11T03:21:15;31.77;;;11.52;;
76196;SDS011;64974;53.144;17.962;2023-02-11T03:23:43;25.73;;;10.20;;
76196;SDS011;64974;53.144;17.962;2023-02-11T03:26:27;28.00;;;10.18;;
76196;SDS011;64974;53.144;17.962;2023-02-11T03:31:29;29.92;;;12.15;;
76196;SDS011;64974;53.144;17.962;2023-02-11T03:34:12;29.80;;;11.75;;
76196;SDS011;64974;53.144;17.962;2023-02-11T03:39:19;31.35;;;10.60;;
76196;SDS011;64974;53.144;17.962;2023-02-11T03:41:47;22.50;;;9.68;;
76196;SDS011;64974;53.144;17.962;2023-02-11T03:44:14;26.88;;;11.02;;
76196;SDS011;64974;53.144;17.962;2023-02-11T03:46:40;37.95;;;11.82;;
76196;SDS011;64974;53.144;17.962;2023-02-11T03:49:13;29.35;;;13.05;;
76196;SDS011;64974;53.144;17.962;2023-02-11T03:51:42;28.25;;;10.18;;
76196;SDS011;64974;53.144;17.962;2023-02-11T03:54:09;38.35;;;13.43;;
76196;SDS011;64974;53.144;17.962;2023-02-11T03:56:43;35.20;;;12.23;;
76196;SDS011;64974;53.144;17.962;2023-02-11T03:59:19;32.33;;;11.73;;
76196;SDS011;64974;53.144;17.962;2023-02-11T04:01:44;27.05;;;11.35;;
76196;SDS011;64974;53.144;17.962;2023-02-11T04:04:10;33.88;;;12.45;;
76196;SDS011;64974;53.144;17.962;2023-02-11T04:06:35;31.70;;;11.57;;
76196;SDS011;64974;53.144;17.962;2023-02-11T04:09:00;28.52;;;10.77;;
76196;SDS011;64974;53.144;17.962;2023-02-11T04:11:26;38.35;;;13.32;;
76196;SDS011;64974;53.144;17.962;2023-02-11T04:13:51;29.80;;;12.47;;
76196;SDS011;64974;53.144;17.962;2023-02-11T04:16:16;30.23;;;12.47;;
76196;SDS011;64974;53.144;17.962;2023-02-11T04:18:42;30.77;;;12.60;;
76196;SDS011;64974;53.144;17.962;2023-02-11T04:21:07;33.78;;;13.85;;
76196;SDS011;64974;53.144;17.962;2023-02-11T04:23:33;29.38;;;9.82;;
76196;SDS011;64974;53.144;17.962;2023-02-11T04:25:58;32.70;;;12.55;;
76196;SDS011;64974;53.144;17.962;2023-02-11T04:28:24;38.83;;;13.77;;
76196;SDS011;64974;53.144;17.962;2023-02-11T04:33:16;31.80;;;13.63;;
76196;SDS011;64974;53.144;17.962;2023-02-11T04:35:41;28.02;;;9.88;;
76196;SDS011;64974;53.144;17.962;2023-02-11T04:38:06;27.45;;;11.20;;
76196;SDS011;64974;53.144;17.962;2023-02-11T04:40:32;34.60;;;12.73;;
76196;SDS011;64974;53.144;17.962;2023-02-11T04:42:57;30.02;;;12.73;;
76196;SDS011;64974;53.144;17.962;2023-02-11T04:45:22;32.50;;;13.10;;
76196;SDS011;64974;53.144;17.962;2023-02-11T04:47:48;34.58;;;13.93;;
76196;SDS011;64974;53.144;17.962;2023-02-11T04:50:13;35.08;;;14.30;;
76196;SDS011;64974;53.144;17.962;2023-02-11T04:52:38;36.65;;;11.93;;
76196;SDS011;64974;53.144;17.962;2023-02-11T04:55:04;37.90;;;14.35;;
76196;SDS011;64974;53.144;17.962;2023-02-11T04:57:29;28.77;;;12.02;;
76196;SDS011;64974;53.144;17.962;2023-02-11T04:59:55;39.28;;;14.18;;
76196;SDS011;64974;53.144;17.962;2023-02-11T05:02:20;33.90;;;12.30;;
76196;SDS011;64974;53.144;17.962;2023-02-11T05:04:45;39.05;;;14.32;;
76196;SDS011;64974;53.144;17.962;2023-02-11T05:07:11;32.63;;;13.40;;
76196;SDS011;64974;53.144;17.962;2023-02-11T05:09:36;34.90;;;13.75;;
76196;SDS011;64974;53.144;17.962;2023-02-11T05:12:01;33.73;;;12.83;;
76196;SDS011;64974;53.144;17.962;2023-02-11T05:14:27;32.65;;;13.32;;
76196;SDS011;64974;53.144;17.962;2023-02-11T05:16:52;32.80;;;12.93;;
76196;SDS011;64974;53.144;17.962;2023-02-11T05:19:17;41.93;;;14.90;;
76196;SDS011;64974;53.144;17.962;2023-02-11T05:21:43;42.15;;;13.10;;
76196;SDS011;64974;53.144;17.962;2023-02-11T05:24:08;26.20;;;11.00;;
76196;SDS011;64974;53.144;17.962;2023-02-11T05:26:33;32.47;;;12.38;;
76196;SDS011;64974;53.144;17.962;2023-02-11T05:28:59;31.47;;;12.60;;
76196;SDS011;64974;53.144;17.962;2023-02-11T05:31:24;31.88;;;11.88;;
76196;SDS011;64974;53.144;17.962;2023-02-11T05:33:50;33.17;;;14.65;;
76196;SDS011;64974;53.144;17.962;2023-02-11T05:36:15;37.50;;;14.38;;
76196;SDS011;64974;53.144;17.962;2023-02-11T05:38:41;46.22;;;16.42;;
76196;SDS011;64974;53.144;17.962;2023-02-11T05:41:07;40.15;;;13.85;;
76196;SDS011;64974;53.144;17.962;2023-02-11T05:43:33;43.28;;;15.10;;
76196;SDS011;64974;53.144;17.962;2023-02-11T05:46:02;38.95;;;13.75;;
76196;SDS011;64974;53.144;17.962;2023-02-11T05:50:53;38.00;;;15.77;;
76196;SDS011;64974;53.144;17.962;2023-02-11T05:53:18;36.50;;;13.32;;
76196;SDS011;64974;53.144;17.962;2023-02-11T05:55:44;34.00;;;12.50;;
76196;SDS011;64974;53.144;17.962;2023-02-11T05:58:09;35.28;;;14.13;;
76196;SDS011;64974;53.144;17.962;2023-02-11T06:00:35;47.70;;;16.07;;
76196;SDS011;64974;53.144;17.962;2023-02-11T06:03:00;34.40;;;14.87;;
76196;SDS011;64974;53.144;17.962;2023-02-11T06:05:26;45.92;;;15.90;;
76196;SDS011;64974;53.144;17.962;2023-02-11T06:07:51;40.60;;;15.63;;
76196;SDS011;64974;53.144;17.962;2023-02-11T06:10:17;38.28;;;14.40;;
76196;SDS011;64974;53.144;17.962;2023-02-11T06:12:42;38.40;;;13.38;;
76196;SDS011;64974;53.144;17.962;2023-02-11T06:15:08;47.35;;;16.00;;
76196;SDS011;64974;53.144;17.962;2023-02-11T06:17:34;46.57;;;16.23;;
76196;SDS011;64974;53.144;17.962;2023-02-11T06:20:00;45.78;;;15.40;;
76196;SDS011;64974;53.144;17.962;2023-02-11T06:22:26;45.25;;;16.85;;
76196;SDS011;64974;53.144;17.962;2023-02-11T06:24:52;41.67;;;15.90;;
76196;SDS011;64974;53.144;17.962;2023-02-11T06:27:17;46.83;;;15.95;;
76196;SDS011;64974;53.144;17.962;2023-02-11T06:29:43;46.58;;;17.17;;
76196;SDS011;64974;53.144;17.962;2023-02-11T06:32:09;39.30;;;16.30;;
76196;SDS011;64974;53.144;17.962;2023-02-11T06:34:34;49.03;;;17.35;;
76196;SDS011;64974;53.144;17.962;2023-02-11T06:36:59;48.87;;;17.57;;
76196;SDS011;64974;53.144;17.962;2023-02-11T06:39:25;45.93;;;17.10;;
76196;SDS011;64974;53.144;17.962;2023-02-11T06:41:50;39.93;;;15.57;;
76196;SDS011;64974;53.144;17.962;2023-02-11T06:44:15;44.43;;;16.90;;
76196;SDS011;64974;53.144;17.962;2023-02-11T06:46:40;46.65;;;17.13;;
76196;SDS011;64974;53.144;17.962;2023-02-11T06:49:06;47.20;;;16.77;;
76196;SDS011;64974;53.144;17.962;2023-02-11T06:51:31;42.77;;;15.93;;
76196;SDS011;64974;53.144;17.962;2023-02-11T06:53:56;41.77;;;15.97;;
76196;SDS011;64974;53.144;17.962;2023-02-11T06:56:22;44.38;;;15.90;;
76196;SDS011;64974;53.144;17.962;2023-02-11T06:58:51;41.47;;;16.50;;
76196;SDS011;64974;53.144;17.962;2023-02-11T07:01:18;42.50;;;16.38;;
76196;SDS011;64974;53.144;17.962;2023-02-11T07:03:44;39.92;;;16.35;;
76196;SDS011;64974;53.144;17.962;2023-02-11T07:06:11;43.97;;;15.90;;
76196;SDS011;64974;53.144;17.962;2023-02-11T07:08:38;47.65;;;17.38;;
76196;SDS011;64974;53.144;17.962;2023-02-11T07:11:13;38.72;;;15.35;;
76196;SDS011;64974;53.144;17.962;2023-02-11T07:13:40;43.38;;;17.30;;
76196;SDS011;64974;53.144;17.962;2023-02-11T07:16:06;45.60;;;17.58;;
76196;SDS011;64974;53.144;17.962;2023-02-11T07:18:33;47.53;;;17.13;;
76196;SDS011;64974;53.144;17.962;2023-02-11T07:20:58;43.78;;;15.85;;
76196;SDS011;64974;53.144;17.962;2023-02-11T07:23:23;29.27;;;11.55;;
76196;SDS011;64974;53.144;17.962;2023-02-11T07:25:49;39.50;;;16.17;;
76196;SDS011;64974;53.144;17.962;2023-02-11T07:28:14;31.73;;;11.53;;
76196;SDS011;64974;53.144;17.962;2023-02-11T07:30:39;44.88;;;16.30;;
76196;SDS011;64974;53.144;17.962;2023-02-11T07:33:05;31.07;;;12.93;;
76196;SDS011;64974;53.144;17.962;2023-02-11T07:35:30;44.22;;;14.15;;
76196;SDS011;64974;53.144;17.962;2023-02-11T07:37:55;33.87;;;12.60;;
76196;SDS011;64974;53.144;17.962;2023-02-11T07:40:20;30.23;;;10.77;;
76196;SDS011;64974;53.144;17.962;2023-02-11T07:42:46;41.77;;;13.73;;
76196;SDS011;64974;53.144;17.962;2023-02-11T07:45:11;32.88;;;12.85;;
76196;SDS011;64974;53.144;17.962;2023-02-11T07:47:38;32.45;;;11.73;;
76196;SDS011;64974;53.144;17.962;2023-02-11T07:50:03;28.75;;;12.32;;
76196;SDS011;64974;53.144;17.962;2023-02-11T07:52:29;36.35;;;14.65;;
76196;SDS011;64974;53.144;17.962;2023-02-11T07:54:55;33.25;;;12.50;;
76196;SDS011;64974;53.144;17.962;2023-02-11T07:57:21;33.17;;;12.68;;
76196;SDS011;64974;53.144;17.962;2023-02-11T07:59:46;38.20;;;15.90;;
76196;SDS011;64974;53.144;17.962;2023-02-11T08:02:11;34.10;;;12.60;;
76196;SDS011;64974;53.144;17.962;2023-02-11T08:04:37;31.40;;;12.32;;
76196;SDS011;64974;53.144;17.962;2023-02-11T08:07:02;41.97;;;16.23;;
76196;SDS011;64974;53.144;17.962;2023-02-11T08:09:27;37.00;;;14.88;;
76196;SDS011;64974;53.144;17.962;2023-02-11T08:11:52;31.87;;;13.60;;
76196;SDS011;64974;53.144;17.962;2023-02-11T08:14:18;38.03;;;14.32;;
76196;SDS011;64974;53.144;17.962;2023-02-11T08:16:44;31.33;;;12.20;;
76196;SDS011;64974;53.144;17.962;2023-02-11T08:19:11;32.88;;;13.13;;
76196;SDS011;64974;53.144;17.962;2023-02-11T08:21:38;38.38;;;13.80;;
76196;SDS011;64974;53.144;17.962;2023-02-11T08:24:04;31.42;;;13.13;;
76196;SDS011;64974;53.144;17.962;2023-02-11T08:26:31;31.90;;;11.15;;
76196;SDS011;64974;53.144;17.962;2023-02-11T08:28:58;38.88;;;15.77;;
76196;SDS011;64974;53.144;17.962;2023-02-11T08:31:26;41.97;;;15.75;;
76196;SDS011;64974;53.144;17.962;2023-02-11T08:33:54;42.35;;;15.63;;
76196;SDS011;64974;53.144;17.962;2023-02-11T08:36:22;43.22;;;16.23;;
76196;SDS011;64974;53.144;17.962;2023-02-11T08:38:53;46.08;;;17.95;;
76196;SDS011;64974;53.144;17.962;2023-02-11T08:43:45;37.87;;;14.17;;
76196;SDS011;64974;53.144;17.962;2023-02-11T08:46:11;44.42;;;15.43;;
76196;SDS011;64974;53.144;17.962;2023-02-11T08:48:38;49.53;;;17.08;;
76196;SDS011;64974;53.144;17.962;2023-02-11T08:51:07;50.47;;;18.55;;
76196;SDS011;64974;53.144;17.962;2023-02-11T08:53:33;48.10;;;16.70;;
76196;SDS011;64974;53.144;17.962;2023-02-11T08:55:59;40.05;;;14.55;;
76196;SDS011;64974;53.144;17.962;2023-02-11T08:58:24;51.25;;;18.55;;
76196;SDS011;64974;53.144;17.962;2023-02-11T09:00:50;41.22;;;15.63;;
76196;SDS011;64974;53.144;17.962;2023-02-11T09:03:15;44.00;;;17.17;;
76196;SDS011;64974;53.144;17.962;2023-02-11T09:05:44;35.70;;;14.95;;
76196;SDS011;64974;53.144;17.962;2023-02-11T09:08:11;49.53;;;17.88;;
76196;SDS011;64974;53.144;17.962;2023-02-11T09:10:37;51.00;;;19.17;;
76196;SDS011;64974;53.144;17.962;2023-02-11T09:13:02;55.30;;;21.63;;
76196;SDS011;64974;53.144;17.962;2023-02-11T09:15:28;51.45;;;20.15;;
76196;SDS011;64974;53.144;17.962;2023-02-11T09:17:53;45.42;;;14.90;;
76196;SDS011;64974;53.144;17.962;2023-02-11T09:20:18;46.30;;;17.20;;
76196;SDS011;64974;53.144;17.962;2023-02-11T09:22:44;43.58;;;16.50;;
76196;SDS011;64974;53.144;17.962;2023-02-11T09:25:09;30.40;;;14.23;;
76196;SDS011;64974;53.144;17.962;2023-02-11T09:27:35;51.35;;;18.42;;
76196;SDS011;64974;53.144;17.962;2023-02-11T09:30:00;43.40;;;16.25;;
76196;SDS011;64974;53.144;17.962;2023-02-11T09:32:25;45.47;;;15.50;;
76196;SDS011;64974;53.144;17.962;2023-02-11T09:34:51;38.43;;;15.07;;
76196;SDS011;64974;53.144;17.962;2023-02-11T09:37:16;57.10;;;21.75;;
76196;SDS011;64974;53.144;17.962;2023-02-11T09:39:41;46.13;;;17.70;;
76196;SDS011;64974;53.144;17.962;2023-02-11T09:42:18;44.22;;;17.98;;
76196;SDS011;64974;53.144;17.962;2023-02-11T09:45:05;49.80;;;17.33;;
76196;SDS011;64974;53.144;17.962;2023-02-11T09:47:44;41.38;;;15.15;;
76196;SDS011;64974;53.144;17.962;2023-02-11T09:50:13;46.60;;;19.27;;
76196;SDS011;64974;53.144;17.962;2023-02-11T09:52:49;49.50;;;18.83;;
76196;SDS011;64974;53.144;17.962;2023-02-11T09:55:31;49.03;;;18.30;;
76196;SDS011;64974;53.144;17.962;2023-02-11T09:58:01;52.33;;;16.70;;
76196;SDS011;64974;53.144;17.962;2023-02-11T10:01:14;37.40;;;14.50;;
76196;SDS011;64974;53.144;17.962;2023-02-11T10:08:45;44.28;;;16.38;;
76196;SDS011;64974;53.144;17.962;2023-02-11T10:11:17;42.85;;;16.35;;
76196;SDS011;64974;53.144;17.962;2023-02-11T10:17:13;47.17;;;17.50;;
76196;SDS011;64974;53.144;17.962;2023-02-11T10:22:44;36.42;;;14.77;;
76196;SDS011;64974;53.144;17.962;2023-02-11T10:25:32;43.72;;;16.58;;
76196;SDS011;64974;53.144;17.962;2023-02-11T10:28:01;41.42;;;16.90;;
76196;SDS011;64974;53.144;17.962;2023-02-11T10:30:57;37.13;;;16.10;;
76196;SDS011;64974;53.144;17.962;2023-02-11T10:33:32;42.85;;;17.88;;
76196;SDS011;64974;53.144;17.962;2023-02-11T10:35:59;31.77;;;15.13;;
76196;SDS011;64974;53.144;17.962;2023-02-11T10:38:25;32.38;;;13.48;;
76196;SDS011;64974;53.144;17.962;2023-02-11T10:43:17;36.40;;;13.53;;
76196;SDS011;64974;53.144;17.962;2023-02-11T10:45:46;47.95;;;18.23;;
76196;SDS011;64974;53.144;17.962;2023-02-11T10:53:34;52.78;;;20.67;;
76196;SDS011;64974;53.144;17.962;2023-02-11T10:56:00;50.28;;;19.38;;
76196;SDS011;64974;53.144;17.962;2023-02-11T10:58:52;66.78;;;24.23;;
76196;SDS011;64974;53.144;17.962;2023-02-11T11:01:22;41.38;;;16.27;;
76196;SDS011;64974;53.144;17.962;2023-02-11T11:03:49;51.53;;;19.42;;
76196;SDS011;64974;53.144;17.962;2023-02-11T11:06:15;54.03;;;20.45;;
76196;SDS011;64974;53.144;17.962;2023-02-11T11:08:53;39.67;;;16.45;;
76196;SDS011;64974;53.144;17.962;2023-02-11T11:11:20;44.30;;;17.02;;
76196;SDS011;64974;53.144;17.962;2023-02-11T11:16:34;48.53;;;19.88;;
76196;SDS011;64974;53.144;17.962;2023-02-11T11:21:44;54.22;;;21.20;;
76196;SDS011;64974;53.144;17.962;2023-02-11T11:24:18;54.78;;;19.13;;
76196;SDS011;64974;53.144;17.962;2023-02-11T11:32:02;43.92;;;15.15;;
76196;SDS011;64974;53.144;17.962;2023-02-11T11:34:31;44.28;;;15.93;;
76196;SDS011;64974;53.144;17.962;2023-02-11T11:36:58;40.65;;;15.88;;
76196;SDS011;64974;53.144;17.962;2023-02-11T11:39:26;46.65;;;17.05;;
76196;SDS011;64974;53.144;17.962;2023-02-11T11:41:57;40.65;;;17.23;;
76196;SDS011;64974;53.144;17.962;2023-02-11T11:47:05;36.72;;;14.38;;
76196;SDS011;64974;53.144;17.962;2023-02-11T11:55:02;32.30;;;14.57;;
76196;SDS011;64974;53.144;17.962;2023-02-11T11:57:34;38.72;;;13.68;;
76196;SDS011;64974;53.144;17.962;2023-02-11T12:00:02;38.65;;;17.15;;
76196;SDS011;64974;53.144;17.962;2023-02-11T12:08:17;34.30;;;14.55;;
76196;SDS011;64974;53.144;17.962;2023-02-11T12:10:52;36.45;;;14.77;;
76196;SDS011;64974;53.144;17.962;2023-02-11T12:13:30;31.30;;;13.50;;
76196;SDS011;64974;53.144;17.962;2023-02-11T12:16:10;27.95;;;11.48;;
76196;SDS011;64974;53.144;17.962;2023-02-11T12:26:58;27.45;;;11.63;;
76196;SDS011;64974;53.144;17.962;2023-02-11T12:32:28;32.88;;;14.45;;
76196;SDS011;64974;53.144;17.962;2023-02-11T12:40:21;37.13;;;14.15;;
76196;SDS011;64974;53.144;17.962;2023-02-11T12:42:59;25.02;;;11.48;;
76196;SDS011;64974;53.144;17.962;2023-02-11T12:45:51;31.45;;;12.68;;
76196;SDS011;64974;53.144;17.962;2023-02-11T12:50:56;23.17;;;9.43;;
76196;SDS011;64974;53.144;17.962;2023-02-11T12:56:23;25.92;;;11.10;;
76196;SDS011;64974;53.144;17.962;2023-02-11T12:58:53;32.22;;;12.63;;
76196;SDS011;64974;53.144;17.962;2023-02-11T13:01:27;28.00;;;11.50;;
76196;SDS011;64974;53.144;17.962;2023-02-11T13:06:40;27.52;;;12.07;;
76196;SDS011;64974;53.144;17.962;2023-02-11T13:09:12;21.75;;;9.23;;
76196;SDS011;64974;53.144;17.962;2023-02-11T13:11:50;18.48;;;8.70;;
76196;SDS011;64974;53.144;17.962;2023-02-11T13:14:52;20.88;;;10.43;;
76196;SDS011;64974;53.144;17.962;2023-02-11T13:17:12;16.10;;;8.75;;
76196;SDS011;64974;53.144;17.962;2023-02-11T13:19:49;18.58;;;7.82;;
76196;SDS011;64974;53.144;17.962;2023-02-11T13:35:38;41.38;;;15.90;;
76196;SDS011;64974;53.144;17.962;2023-02-11T13:38:05;25.33;;;10.57;;
76196;SDS011;64974;53.144;17.962;2023-02-11T13:40:42;24.13;;;10.50;;
76196;SDS011;64974;53.144;17.962;2023-02-11T13:43:21;23.25;;;11.95;;
76196;SDS011;64974;53.144;17.962;2023-02-11T13:45:49;27.10;;;12.40;;
76196;SDS011;64974;53.144;17.962;2023-02-11T13:48:21;24.13;;;11.73;;
76196;SDS011;64974;53.144;17.962;2023-02-11T13:53:14;22.48;;;10.35;;
76196;SDS011;64974;53.144;17.962;2023-02-11T13:55:41;28.58;;;11.30;;
76196;SDS011;64974;53.144;17.962;2023-02-11T14:09:07;25.75;;;12.25;;
76196;SDS011;64974;53.144;17.962;2023-02-11T14:19:38;19.60;;;9.18;;
76196;SDS011;64974;53.144;17.962;2023-02-11T14:22:11;24.10;;;10.90;;
76196;SDS011;64974;53.144;17.962;2023-02-11T14:25:01;26.15;;;11.60;;
76196;SDS011;64974;53.144;17.962;2023-02-11T14:27:42;18.60;;;8.40;;
76196;SDS011;64974;53.144;17.962;2023-02-11T14:32:56;27.73;;;12.02;;
76196;SDS011;64974;53.144;17.962;2023-02-11T14:35:47;31.70;;;10.90;;
76196;SDS011;64974;53.144;17.962;2023-02-11T14:38:27;24.65;;;11.23;;
76196;SDS011;64974;53.144;17.962;2023-02-11T14:41:16;25.05;;;11.38;;
76196;SDS011;64974;53.144;17.962;2023-02-11T14:43:46;29.63;;;11.27;;
76196;SDS011;64974;53.144;17.962;2023-02-11T14:46:16;24.75;;;9.85;;
76196;SDS011;64974;53.144;17.962;2023-02-11T14:48:47;28.98;;;12.38;;
76196;SDS011;64974;53.144;17.962;2023-02-11T14:51:23;27.65;;;12.77;;
76196;SDS011;64974;53.144;17.962;2023-02-11T14:53:56;30.33;;;13.25;;
76196;SDS011;64974;53.144;17.962;2023-02-11T14:56:25;32.50;;;13.10;;
76196;SDS011;64974;53.144;17.962;2023-02-11T14:58:55;30.20;;;12.05;;
76196;SDS011;64974;53.144;17.962;2023-02-11T15:01:25;36.40;;;14.65;;
76196;SDS011;64974;53.144;17.962;2023-02-11T15:03:58;24.10;;;12.18;;
76196;SDS011;64974;53.144;17.962;2023-02-11T15:06:41;28.23;;;13.55;;
76196;SDS011;64974;53.144;17.962;2023-02-11T15:09:14;24.20;;;11.55;;
76196;SDS011;64974;53.144;17.962;2023-02-11T15:11:42;32.97;;;14.63;;
76196;SDS011;64974;53.144;17.962;2023-02-11T15:14:15;28.13;;;13.07;;
76196;SDS011;64974;53.144;17.962;2023-02-11T15:16:45;33.97;;;15.40;;
76196;SDS011;64974;53.144;17.962;2023-02-11T15:19:31;39.78;;;19.17;;
76196;SDS011;64974;53.144;17.962;2023-02-11T15:21:59;41.35;;;19.33;;
76196;SDS011;64974;53.144;17.962;2023-02-11T15:24:29;35.42;;;16.75;;
76196;SDS011;64974;53.144;17.962;2023-02-11T15:26:57;37.03;;;18.63;;
76196;SDS011;64974;53.144;17.962;2023-02-11T15:29:34;43.20;;;17.98;;
76196;SDS011;64974;53.144;17.962;2023-02-11T15:32:04;35.40;;;16.77;;
76196;SDS011;64974;53.144;17.962;2023-02-11T15:34:31;38.33;;;17.83;;
76196;SDS011;64974;53.144;17.962;2023-02-11T15:36:57;35.40;;;15.40;;
76196;SDS011;64974;53.144;17.962;2023-02-11T15:42:18;30.50;;;12.95;;
76196;SDS011;64974;53.144;17.962;2023-02-11T15:45:07;25.35;;;11.82;;
76196;SDS011;64974;53.144;17.962;2023-02-11T15:47:39;27.23;;;11.52;;
76196;SDS011;64974;53.144;17.962;2023-02-11T15:50:15;29.50;;;12.70;;
76196;SDS011;64974;53.144;17.962;2023-02-11T15:52:44;32.05;;;13.05;;
76196;SDS011;64974;53.144;17.962;2023-02-11T15:55:11;37.28;;;14.13;;
76196;SDS011;64974;53.144;17.962;2023-02-11T15:57:40;25.48;;;11.75;;
76196;SDS011;64974;53.144;17.962;2023-02-11T16:00:13;23.10;;;10.27;;
76196;SDS011;64974;53.144;17.962;2023-02-11T16:02:43;27.55;;;11.65;;
76196;SDS011;64974;53.144;17.962;2023-02-11T16:08:00;38.10;;;16.05;;
76196;SDS011;64974;53.144;17.962;2023-02-11T16:11:01;33.42;;;13.52;;
76196;SDS011;64974;53.144;17.962;2023-02-11T16:13:32;26.30;;;12.20;;
76196;SDS011;64974;53.144;17.962;2023-02-11T16:16:28;35.40;;;14.05;;
76196;SDS011;64974;53.144;17.962;2023-02-11T16:18:56;32.00;;;15.85;;
76196;SDS011;64974;53.144;17.962;2023-02-11T16:21:25;24.27;;;12.65;;
76196;SDS011;64974;53.144;17.962;2023-02-11T16:23:59;24.30;;;12.68;;
76196;SDS011;64974;53.144;17.962;2023-02-11T16:26:26;28.85;;;11.02;;
76196;SDS011;64974;53.144;17.962;2023-02-11T16:29:06;23.27;;;10.82;;
76196;SDS011;64974;53.144;17.962;2023-02-11T16:31:38;26.75;;;10.88;;
76196;SDS011;64974;53.144;17.962;2023-02-11T16:34:26;30.75;;;12.20;;
76196;SDS011;64974;53.144;17.962;2023-02-11T16:39:16;25.83;;;11.32;;
76196;SDS011;64974;53.144;17.962;2023-02-11T16:41:42;26.13;;;11.93;;
76196;SDS011;64974;53.144;17.962;2023-02-11T16:44:07;26.90;;;12.15;;
76196;SDS011;64974;53.144;17.962;2023-02-11T16:46:33;31.33;;;14.23;;
76196;SDS011;64974;53.144;17.962;2023-02-11T16:48:59;37.95;;;14.73;;
76196;SDS011;64974;53.144;17.962;2023-02-11T16:51:33;35.92;;;14.73;;
76196;SDS011;64974;53.144;17.962;2023-02-11T16:53:58;31.93;;;15.00;;
76196;SDS011;64974;53.144;17.962;2023-02-11T16:56:25;32.17;;;14.68;;
76196;SDS011;64974;53.144;17.962;2023-02-11T16:58:50;31.88;;;14.35;;
76196;SDS011;64974;53.144;17.962;2023-02-11T17:01:15;31.48;;;12.98;;
76196;SDS011;64974;53.144;17.962;2023-02-11T17:03:41;45.67;;;17.70;;